createdAt,value
2019-06-11T00:00:45.542Z,80.70
2019-06-11T00:01:45.552Z,124.90
2019-06-11T00:02:45.633Z,76.20
2019-06-11T00:03:45.650Z,58.00
2019-06-11T00:04:45.697Z,67.70
2019-06-11T00:05:45.766Z,60.30
2019-06-11T00:06:45.782Z,80.60
2019-06-11T00:07:45.807Z,59.50
2019-06-11T00:08:45.847Z,45.60
2019-06-11T00:09:45.886Z,45.70
2019-06-11T00:10:45.931Z,49.60
2019-06-11T00:11:46.028Z,48.50
2019-06-11T00:12:46.017Z,56.60
2019-06-11T00:13:46.104Z,60.20
2019-06-11T00:14:46.122Z,50.40
2019-06-11T00:15:46.182Z,63.20
2019-06-11T00:16:46.204Z,54.80
2019-06-11T00:17:46.254Z,46.70
2019-06-11T00:18:46.265Z,46.60
2019-06-11T00:19:46.326Z,45.40
2019-06-11T00:20:46.368Z,51.30
2019-06-11T00:21:46.430Z,51.20
2019-06-11T00:22:46.449Z,51.50
2019-06-11T00:23:46.486Z,49.10
2019-06-11T00:24:46.533Z,45.80
2019-06-11T00:25:46.634Z,47.50
2019-06-11T00:26:46.631Z,45.00
2019-06-11T00:27:46.655Z,46.10
2019-06-11T00:28:46.721Z,46.80
2019-06-11T00:29:46.765Z,47.10
2019-06-11T00:30:46.807Z,51.50
2019-06-11T00:31:46.847Z,51.30
2019-06-11T00:32:46.943Z,54.00
2019-06-11T00:33:46.970Z,156.00
2019-06-11T00:34:46.970Z,118.70
2019-06-11T00:35:47.012Z,234.10
2019-06-11T00:36:47.036Z,201.60
2019-06-11T00:37:47.084Z,144.10
2019-06-11T00:38:47.130Z,109.80
2019-06-11T00:39:47.151Z,99.30
2019-06-11T00:40:47.255Z,76.70
2019-06-11T00:41:47.236Z,114.10
2019-06-11T00:42:47.290Z,91.30
2019-06-11T00:43:47.351Z,61.20
2019-06-11T00:44:47.388Z,61.50
2019-06-11T00:45:47.464Z,82.30
2019-06-11T00:46:47.479Z,93.80
2019-06-11T00:47:47.501Z,60.60
2019-06-11T00:48:47.552Z,59.30
2019-06-11T00:49:47.584Z,63.10
2019-06-11T00:50:47.633Z,69.20
2019-06-11T00:51:47.726Z,67.00
2019-06-11T00:52:47.713Z,66.20
2019-06-11T00:53:47.747Z,75.80
2019-06-11T00:54:47.802Z,124.90
2019-06-11T00:55:47.840Z,156.50
2019-06-11T00:56:47.907Z,231.40
2019-06-11T00:57:47.938Z,184.50
2019-06-11T00:58:47.968Z,178.90
2019-06-11T00:59:48.004Z,195.30
2019-06-11T01:00:48.069Z,201.10
2019-06-11T01:01:48.107Z,232.60
2019-06-11T01:02:48.139Z,209.00
2019-06-11T01:03:48.188Z,221.80
2019-06-11T01:04:48.220Z,227.20
2019-06-11T01:05:48.266Z,153.10
2019-06-11T01:06:48.315Z,204.60
2019-06-11T01:07:48.343Z,141.50
2019-06-11T01:08:48.378Z,97.40
2019-06-11T01:09:48.496Z,115.60
2019-06-11T01:10:48.470Z,114.20
2019-06-11T01:11:48.563Z,105.50
2019-06-11T01:12:48.544Z,117.20
2019-06-11T01:13:48.646Z,77.10
2019-06-11T01:14:48.646Z,78.70
2019-06-11T01:15:48.739Z,76.20
2019-06-11T01:16:48.764Z,87.90
2019-06-11T01:17:48.810Z,93.60
2019-06-11T01:18:48.852Z,119.70
2019-06-11T01:19:48.938Z,96.80
2019-06-11T01:20:48.887Z,112.00
2019-06-11T01:21:48.914Z,108.40
2019-06-11T01:22:48.984Z,143.40
2019-06-11T01:23:49.126Z,108.60
2019-06-11T01:24:49.125Z,88.60
2019-06-11T01:25:49.104Z,78.00
2019-06-11T01:26:49.196Z,78.00
2019-06-11T01:27:49.175Z,74.80
2019-06-11T01:28:49.266Z,77.40
2019-06-11T01:29:49.409Z,68.90
2019-06-11T01:30:49.298Z,74.20
2019-06-11T01:31:49.417Z,78.20
2019-06-11T01:33:01.202Z,76.00
2019-06-11T01:33:49.501Z,75.30
2019-06-11T01:34:49.635Z,72.30
2019-06-11T01:35:49.555Z,81.50
2019-06-11T01:36:49.612Z,76.30
2019-06-11T01:37:49.660Z,76.40
2019-06-11T01:38:49.639Z,87.60
2019-06-11T01:39:49.832Z,100.80
2019-06-11T01:40:49.775Z,103.30
2019-06-11T01:41:49.834Z,117.40
2019-06-11T01:42:52.207Z,142.00
2019-06-11T01:43:52.192Z,93.30
2019-06-11T01:44:51.908Z,129.10
2019-06-11T01:45:49.939Z,78.80
2019-06-11T01:46:52.657Z,70.90
2019-06-11T01:47:52.189Z,71.50
2019-06-11T01:48:50.048Z,69.80
2019-06-11T01:49:52.609Z,69.10
2019-06-11T01:50:52.844Z,68.60
2019-06-11T01:51:52.609Z,71.70
2019-06-11T01:52:52.296Z,71.50
2019-06-11T01:53:50.287Z,72.20
2019-06-11T01:54:52.321Z,75.50
2019-06-11T01:55:52.380Z,70.40
2019-06-11T01:56:52.407Z,72.30
2019-06-11T01:57:50.417Z,75.00
2019-06-11T01:58:52.613Z,89.10
2019-06-11T01:59:52.114Z,80.30
2019-06-11T02:00:53.294Z,85.40
2019-06-11T02:01:52.301Z,89.10
2019-06-11T02:02:53.060Z,84.70
2019-06-11T02:03:52.724Z,89.70
2019-06-11T02:04:52.843Z,92.40
2019-06-11T02:05:52.664Z,91.60
2019-06-11T02:06:53.070Z,103.10
2019-06-11T02:07:52.727Z,101.80
2019-06-11T02:08:52.252Z,105.10
2019-06-11T02:09:53.318Z,109.80
2019-06-11T02:10:52.943Z,104.90
2019-06-11T02:11:52.185Z,107.20
2019-06-11T02:12:52.729Z,106.00
2019-06-11T02:13:52.596Z,108.10
2019-06-11T02:14:52.741Z,101.10
2019-06-11T02:15:52.935Z,90.40
2019-06-11T02:16:53.255Z,103.40
2019-06-11T02:17:52.672Z,99.70
2019-06-11T02:18:53.024Z,102.20
2019-06-11T02:19:52.283Z,98.30
2019-06-11T02:20:53.423Z,97.80
2019-06-11T02:21:52.415Z,101.80
2019-06-11T02:22:53.305Z,93.90
2019-06-11T02:23:52.515Z,97.50
2019-06-11T02:24:54.568Z,93.40
2019-06-11T02:25:52.913Z,97.90
2019-06-11T02:26:52.813Z,92.40
2019-06-11T02:27:52.121Z,94.50
2019-06-11T02:28:52.928Z,99.00
2019-06-11T02:29:52.307Z,93.20
2019-06-11T02:31:00.515Z,97.70
2019-06-11T02:31:53.778Z,96.50
2019-06-11T02:32:54.753Z,85.90
2019-06-11T02:34:23.724Z,98.00
2019-06-11T02:35:05.631Z,91.10
2019-06-11T02:35:59.830Z,94.90
2019-06-11T02:36:52.596Z,95.00
2019-06-11T02:37:52.602Z,101.20
2019-06-11T02:38:52.149Z,102.30
2019-06-11T02:39:52.780Z,97.40
2019-06-11T02:40:52.278Z,97.70
2019-06-11T02:41:52.392Z,99.30
2019-06-11T02:42:52.353Z,91.90
2019-06-11T02:43:52.354Z,91.60
2019-06-11T02:44:52.861Z,85.40
2019-06-11T02:45:52.489Z,93.30
2019-06-11T02:46:52.484Z,84.90
2019-06-11T02:47:52.535Z,80.40
2019-06-11T02:48:55.433Z,85.40
2019-06-11T02:49:52.590Z,77.60
2019-06-11T02:50:52.978Z,76.10
2019-06-11T02:51:52.711Z,79.00
2019-06-11T02:52:52.737Z,80.30
2019-06-11T02:53:52.814Z,79.60
2019-06-11T02:54:52.809Z,85.80
2019-06-11T02:55:52.863Z,81.80
2019-06-11T02:56:52.896Z,82.70
2019-06-11T02:57:52.936Z,83.40
2019-06-11T02:58:52.980Z,79.10
2019-06-11T02:59:53.023Z,78.30
2019-06-11T03:00:53.602Z,74.80
2019-06-11T03:01:53.112Z,77.90
2019-06-11T03:02:53.134Z,73.20
2019-06-11T03:04:15.183Z,73.10
2019-06-11T03:05:03.027Z,77.20
2019-06-11T03:05:53.251Z,75.60
2019-06-11T03:06:53.290Z,77.10
2019-06-11T03:07:53.337Z,77.60
2019-06-11T03:08:53.399Z,79.10
2019-06-11T03:09:53.412Z,89.30
2019-06-11T03:10:56.510Z,83.20
2019-06-11T03:11:53.646Z,80.50
2019-06-11T03:12:53.573Z,78.60
2019-06-11T03:13:53.593Z,79.00
2019-06-11T03:14:53.627Z,82.60
2019-06-11T03:15:53.687Z,82.30
2019-06-11T03:16:53.732Z,85.50
2019-06-11T03:17:53.749Z,87.50
2019-06-11T03:18:53.844Z,85.70
2019-06-11T03:19:53.846Z,82.70
2019-06-11T03:20:53.934Z,75.60
2019-06-11T03:21:53.930Z,77.60
2019-06-11T03:22:53.965Z,78.20
2019-06-11T03:23:54.050Z,77.30
2019-06-11T03:24:54.041Z,77.60
2019-06-11T03:25:54.122Z,75.60
2019-06-11T03:26:54.139Z,73.80
2019-06-11T03:27:54.186Z,74.90
2019-06-11T03:53:04.978Z,60.10
2019-06-11T08:05:56.217Z,250.50
2019-06-11T08:06:56.352Z,348.10
2019-06-11T08:08:00.872Z,458.30
2019-06-11T08:08:55.309Z,394.00
2019-06-11T08:10:12.727Z,490.60
2019-06-11T08:11:00.785Z,500.30
2019-06-11T08:11:58.443Z,484.80
2019-06-11T08:13:01.660Z,467.10
2019-06-11T08:14:10.818Z,399.00
2019-06-11T08:14:56.304Z,356.90
2019-06-11T08:16:04.586Z,345.60
2019-06-11T08:16:56.580Z,420.80
2019-06-11T08:17:56.193Z,292.40
2019-06-11T08:19:02.350Z,255.80
2019-06-11T08:20:12.440Z,278.50
2019-06-11T08:21:14.586Z,248.40
2019-06-11T08:22:14.901Z,250.70
2019-06-11T08:23:03.011Z,322.50
2019-06-11T08:24:01.537Z,302.30
2019-06-11T08:25:02.915Z,348.60
2019-06-11T08:27:02.612Z,343.60
2019-06-11T08:28:07.007Z,296.30
2019-06-11T08:28:54.255Z,287.20
2019-06-11T08:29:54.301Z,288.40
2019-06-11T08:30:54.431Z,212.60
2019-06-11T08:31:54.378Z,222.20
2019-06-11T08:32:54.397Z,197.60
2019-06-11T08:34:01.092Z,220.80
2019-06-11T08:34:54.475Z,234.40
2019-06-11T08:35:54.528Z,280.80
2019-06-11T08:36:54.559Z,293.00
2019-06-11T08:37:54.602Z,286.70
2019-06-11T08:38:54.673Z,248.30
2019-06-11T08:40:12.027Z,277.00
2019-06-11T08:40:54.732Z,242.80
2019-06-11T08:41:54.754Z,310.40
2019-06-11T08:42:54.799Z,303.20
2019-06-11T08:43:54.839Z,326.40
2019-06-11T08:45:08.141Z,334.60
2019-06-11T08:45:54.912Z,320.80
2019-06-11T08:46:54.973Z,344.50
2019-06-11T08:47:55.012Z,308.10
2019-06-11T08:48:55.048Z,257.10
2019-06-11T08:49:55.087Z,221.20
2019-06-11T08:50:55.146Z,205.70
2019-06-11T08:51:55.166Z,218.10
2019-06-11T08:52:55.205Z,233.50
2019-06-11T08:53:55.239Z,277.00
2019-06-11T08:54:55.280Z,311.70
2019-06-11T08:55:55.370Z,255.60
2019-06-11T08:56:55.383Z,246.10
2019-06-11T08:57:55.400Z,286.50
2019-06-11T08:58:55.448Z,301.90
2019-06-11T09:00:26.830Z,315.30
2019-06-11T09:01:07.876Z,296.70
2019-06-11T09:01:55.574Z,265.10
2019-06-11T09:02:55.644Z,297.20
2019-06-11T09:03:55.631Z,349.90
2019-06-11T09:04:55.678Z,378.00
2019-06-11T09:05:55.713Z,337.30
2019-06-11T09:06:55.753Z,374.70
2019-06-11T09:07:55.805Z,342.40
2019-06-11T09:08:55.836Z,265.80
2019-06-11T09:09:55.873Z,211.90
2019-06-11T09:10:55.914Z,227.30
2019-06-11T09:11:55.964Z,251.70
2019-06-11T09:12:56.000Z,263.20
2019-06-11T09:13:56.035Z,252.60
2019-06-11T09:14:56.083Z,212.60
2019-06-11T09:15:56.119Z,232.10
2019-06-11T09:16:58.134Z,354.90
2019-06-11T09:17:56.215Z,355.20
2019-06-11T09:18:57.662Z,318.70
2019-06-11T09:19:56.279Z,316.90
2019-06-11T09:20:56.344Z,274.80
2019-06-11T09:21:56.353Z,252.20
2019-06-11T09:22:56.397Z,240.20
2019-06-11T09:23:57.337Z,262.80
2019-06-11T09:24:56.469Z,281.20
2019-06-11T09:25:56.541Z,295.10
2019-06-11T09:26:56.572Z,197.40
2019-06-11T09:27:56.629Z,225.60
2019-06-11T09:28:56.658Z,224.90
2019-06-11T09:29:57.146Z,204.70
2019-06-11T09:30:56.712Z,212.70
2019-06-11T09:32:01.190Z,219.30
2019-06-11T09:32:56.816Z,201.80
2019-06-11T09:33:56.847Z,239.30
2019-06-11T09:34:56.897Z,254.50
2019-06-11T09:35:56.922Z,253.90
2019-06-11T09:36:57.005Z,274.30
2019-06-11T09:37:57.006Z,275.60
2019-06-11T09:38:57.057Z,291.00
2019-06-11T09:39:57.103Z,316.10
2019-06-11T09:41:02.929Z,245.40
2019-06-11T09:41:57.155Z,213.60
2019-06-11T09:42:57.224Z,220.50
2019-06-11T09:43:57.249Z,208.30
2019-06-11T09:44:57.290Z,194.80
2019-06-11T09:46:01.743Z,220.70
2019-06-11T09:46:57.385Z,215.20
2019-06-11T09:48:04.059Z,200.70
2019-06-11T09:48:57.505Z,203.70
2019-06-11T09:50:00.154Z,224.50
2019-06-11T09:50:57.602Z,209.70
2019-06-11T09:51:57.557Z,195.90
2019-06-11T09:52:57.609Z,196.40
2019-06-11T09:53:57.648Z,225.40
2019-06-11T09:54:57.708Z,227.90
2019-06-11T09:56:00.167Z,221.50
2019-06-11T09:57:00.279Z,202.70
2019-06-11T09:58:01.717Z,232.10
2019-06-11T09:59:00.086Z,209.20
2019-06-11T09:59:57.907Z,187.90
2019-06-11T10:01:00.188Z,203.00
2019-06-11T10:01:57.969Z,183.60
2019-06-11T10:03:00.242Z,166.50
2019-06-11T10:03:58.059Z,180.80
2019-06-11T10:04:58.970Z,158.90
2019-06-11T10:06:00.268Z,160.00
2019-06-11T10:06:58.182Z,186.70
2019-06-11T10:08:00.419Z,197.60
2019-06-11T10:08:58.294Z,161.50
2019-06-11T10:09:59.957Z,161.20
2019-06-11T10:11:35.728Z,159.20
2019-06-11T10:12:03.649Z,150.50
2019-06-11T10:13:00.673Z,143.50
2019-06-11T10:14:00.978Z,165.80
2019-06-11T10:15:01.021Z,142.30
2019-06-11T10:16:00.450Z,136.90
2019-06-11T10:17:00.507Z,139.90
2019-06-11T10:17:58.622Z,139.20
2019-06-11T10:19:01.215Z,155.20
2019-06-11T10:19:58.705Z,141.80
2019-06-11T10:21:00.347Z,142.40
2019-06-11T10:21:58.781Z,148.80
2019-06-11T10:23:01.094Z,145.70
2019-06-11T10:24:00.862Z,133.20
2019-06-11T10:25:00.945Z,148.00
2019-06-11T10:26:01.052Z,161.00
2019-06-11T10:27:01.043Z,160.30
2019-06-11T10:28:14.470Z,168.40
2019-06-11T10:28:59.883Z,183.10
2019-06-11T10:30:00.357Z,170.20
2019-06-11T10:31:01.201Z,140.60
2019-06-11T10:32:00.263Z,151.10
2019-06-11T10:32:59.221Z,134.80
2019-06-11T10:34:01.447Z,126.20
2019-06-11T10:35:00.628Z,128.20
2019-06-11T10:36:00.573Z,142.20
2019-06-11T10:37:01.314Z,127.30
2019-06-11T10:38:00.465Z,124.20
2019-06-11T10:39:01.405Z,114.50
2019-06-11T10:39:59.942Z,99.50
2019-06-11T10:41:05.007Z,108.10
2019-06-11T10:42:04.291Z,101.80
2019-06-11T10:43:00.823Z,121.10
2019-06-11T10:44:00.379Z,98.80
2019-06-11T10:44:59.720Z,102.60
2019-06-11T10:46:01.695Z,103.20
2019-06-11T10:47:00.963Z,106.40
2019-06-11T10:48:00.795Z,98.40
2019-06-11T10:49:01.421Z,111.90
2019-06-11T10:50:00.782Z,109.90
2019-06-11T10:51:01.465Z,113.60
2019-06-11T10:52:00.021Z,110.10
2019-06-11T10:53:03.537Z,119.80
2019-06-11T10:54:00.126Z,107.10
2019-06-11T10:55:00.419Z,277.70
2019-06-11T10:56:02.008Z,116.00
2019-06-11T10:57:00.233Z,116.90
2019-06-11T10:58:01.415Z,109.40
2019-06-11T10:59:00.461Z,107.40
2019-06-11T11:00:03.220Z,97.40
2019-06-11T11:01:00.886Z,99.40
2019-06-11T11:02:02.397Z,99.10
2019-06-11T11:03:00.828Z,92.80
2019-06-11T11:04:02.950Z,101.50
2019-06-11T11:05:04.490Z,81.50
2019-06-11T11:06:01.540Z,80.10
2019-06-11T11:07:00.950Z,83.60
2019-06-11T11:08:00.671Z,85.50
2019-06-11T11:09:01.958Z,80.10
2019-06-11T11:10:01.192Z,77.40
2019-06-11T11:11:02.971Z,103.90
2019-06-11T11:12:16.981Z,86.70
2019-06-11T11:13:01.437Z,83.70
2019-06-11T11:14:01.569Z,84.10
2019-06-11T11:15:01.533Z,217.60
2019-06-11T11:16:01.681Z,113.10
2019-06-11T11:17:01.433Z,122.20
2019-06-11T11:18:09.101Z,85.10
2019-06-11T11:19:01.155Z,87.80
2019-06-11T11:20:03.522Z,80.90
2019-06-11T11:21:01.432Z,105.30
2019-06-11T11:22:01.282Z,77.20
2019-06-11T11:23:05.026Z,78.20
2019-06-11T11:24:01.512Z,82.60
2019-06-11T11:25:01.390Z,85.40
2019-06-11T11:26:08.040Z,81.60
2019-06-11T11:27:01.509Z,107.30
2019-06-11T11:28:16.593Z,115.90
2019-06-11T11:29:01.584Z,130.90
2019-06-11T11:30:01.662Z,111.80
2019-06-11T11:31:06.065Z,118.90
2019-06-11T11:32:01.734Z,99.10
2019-06-11T11:33:07.536Z,73.60
2019-06-11T11:34:01.810Z,67.40
2019-06-11T11:35:02.044Z,61.50
2019-06-11T11:36:02.302Z,62.30
2019-06-11T11:37:03.144Z,63.50
2019-06-11T11:38:04.948Z,64.20
2019-06-11T11:39:02.081Z,81.90
2019-06-11T11:40:02.099Z,58.20
2019-06-11T11:41:04.321Z,54.10
2019-06-11T11:42:04.786Z,54.10
2019-06-11T11:43:04.764Z,57.80
2019-06-11T11:44:04.045Z,53.20
2019-06-11T11:45:02.765Z,58.80
2019-06-11T11:46:05.896Z,57.50
2019-06-11T11:47:02.413Z,66.00
2019-06-11T11:48:03.410Z,325.70
2019-06-11T11:49:02.522Z,267.60
2019-06-11T11:50:02.567Z,416.90
2019-06-11T11:51:02.653Z,377.20
2019-06-11T11:52:02.665Z,302.20
2019-06-11T11:53:02.728Z,297.90
2019-06-11T11:54:02.798Z,254.70
2019-06-11T11:55:02.828Z,278.20
2019-06-11T11:56:02.880Z,326.30
2019-06-11T11:57:02.900Z,299.30
2019-06-11T11:58:02.976Z,253.40
2019-06-11T11:59:03.153Z,291.40
2019-06-11T12:00:09.227Z,241.20
2019-06-11T12:01:03.135Z,289.70
2019-06-11T12:02:06.224Z,275.90
2019-06-11T12:03:04.945Z,226.20
2019-06-11T12:04:06.732Z,304.30
2019-06-11T12:05:06.466Z,592.10
2019-06-11T12:06:03.549Z,617.40
2019-06-11T12:07:03.403Z,635.90
2019-06-11T12:08:03.464Z,461.00
2019-06-11T12:09:03.499Z,495.00
2019-06-11T12:10:03.540Z,450.90
2019-06-11T12:11:03.639Z,492.20
2019-06-11T12:12:03.630Z,586.20
2019-06-11T12:13:06.787Z,520.40
2019-06-11T12:14:03.746Z,572.90
2019-06-11T12:15:07.613Z,570.60
2019-06-11T12:16:07.873Z,424.70
2019-06-11T12:17:03.923Z,610.60
2019-06-11T12:18:03.959Z,496.60
2019-06-11T12:19:16.981Z,612.60
2019-06-11T12:20:04.055Z,606.70
2019-06-11T12:21:06.169Z,634.70
2019-06-11T12:22:04.143Z,594.00
2019-06-11T12:23:08.429Z,534.00
2019-06-11T12:24:04.247Z,497.50
2019-06-11T12:25:21.542Z,710.80
2019-06-11T12:26:04.354Z,583.90
2019-06-11T12:27:04.398Z,699.30
2019-06-11T12:28:04.888Z,779.30
2019-06-11T12:29:04.474Z,622.60
2019-06-11T12:30:11.051Z,570.60
2019-06-11T12:31:04.713Z,529.80
2019-06-11T12:32:08.153Z,610.60
2019-06-11T12:33:04.679Z,589.90
2019-06-11T12:34:04.768Z,520.70
2019-06-11T12:35:04.788Z,616.80
2019-06-11T12:36:05.183Z,603.80
2019-06-11T12:37:04.872Z,673.60
2019-06-11T12:38:04.953Z,445.10
2019-06-11T12:39:05.083Z,615.50
2019-06-11T12:40:05.042Z,690.20
2019-06-11T12:41:08.431Z,571.00
2019-06-11T12:42:06.270Z,439.30
2019-06-11T12:43:28.700Z,446.10
2019-06-11T12:44:05.257Z,407.10
2019-06-11T12:45:05.313Z,478.90
2019-06-11T12:46:06.048Z,419.40
2019-06-11T12:47:05.544Z,335.40
2019-06-11T12:48:05.430Z,384.90
2019-06-11T12:49:06.745Z,342.90
2019-06-11T12:50:05.545Z,158.80
2019-06-11T12:51:11.393Z,215.00
2019-06-11T12:52:06.374Z,299.60
2019-06-11T12:53:07.375Z,267.20
2019-06-11T12:54:05.757Z,314.10
2019-06-11T12:55:07.783Z,271.60
2019-06-11T12:56:05.863Z,176.90
2019-06-11T12:57:06.185Z,238.50
2019-06-11T12:58:07.626Z,151.90
2019-06-11T12:59:07.210Z,308.80
2019-06-11T13:00:08.924Z,248.00
2019-06-11T13:01:07.093Z,216.30
2019-06-11T13:02:06.167Z,158.20
2019-06-11T13:03:06.216Z,155.90
2019-06-11T13:04:08.405Z,128.20
2019-06-11T13:05:06.300Z,149.70
2019-06-11T13:06:07.231Z,95.20
2019-06-11T13:07:06.441Z,296.90
2019-06-11T13:08:09.592Z,364.20
2019-06-11T13:09:06.532Z,341.00
2019-06-11T13:10:06.593Z,345.30
2019-06-11T13:11:07.657Z,356.40
2019-06-11T13:12:06.976Z,310.90
2019-06-11T13:13:06.732Z,315.70
2019-06-11T13:14:06.821Z,322.70
2019-06-11T13:15:09.551Z,576.60
2019-06-11T13:16:06.903Z,519.20
2019-06-11T13:17:09.667Z,376.50
2019-06-11T13:18:07.010Z,252.70
2019-06-11T13:19:07.141Z,297.10
2019-06-11T13:20:07.106Z,269.20
2019-06-11T13:21:07.366Z,272.10
2019-06-11T13:22:07.216Z,332.80
2019-06-11T13:23:07.278Z,329.90
2019-06-11T13:24:08.107Z,311.20
2019-06-11T13:25:07.372Z,200.50
2019-06-11T13:26:07.399Z,247.50
2019-06-11T13:27:07.471Z,209.80
2019-06-11T13:28:07.542Z,168.10
2019-06-11T13:29:08.019Z,242.60
2019-06-11T13:30:10.205Z,236.20
2019-06-11T13:31:08.716Z,410.70
2019-06-11T13:32:08.137Z,193.20
2019-06-11T13:33:07.843Z,211.00
2019-06-11T13:34:07.843Z,166.80
2019-06-11T13:35:10.531Z,174.60
2019-06-11T13:36:10.796Z,171.00
2019-06-11T13:37:07.994Z,184.20
2019-06-11T13:38:16.589Z,130.30
2019-06-11T13:39:10.862Z,197.40
2019-06-11T13:40:09.814Z,151.90
2019-06-11T13:41:12.103Z,145.00
2019-06-11T13:42:14.256Z,125.60
2019-06-11T13:43:10.580Z,134.60
2019-06-11T13:44:29.432Z,136.30
2019-06-11T13:45:11.014Z,114.30
2019-06-11T13:46:10.293Z,110.80
2019-06-11T13:47:10.953Z,87.60
2019-06-11T13:48:10.842Z,90.60
2019-06-11T13:49:11.189Z,100.30
2019-06-11T13:50:11.291Z,117.30
2019-06-11T13:51:11.545Z,105.70
2019-06-11T13:52:11.071Z,157.10
2019-06-11T13:53:10.701Z,193.20
2019-06-11T13:54:08.939Z,201.50
2019-06-11T13:55:11.494Z,181.10
2019-06-11T13:56:11.278Z,193.30
2019-06-11T13:57:11.798Z,209.30
2019-06-11T13:58:10.947Z,229.80
2019-06-11T13:59:13.224Z,153.60
2019-06-11T14:00:14.762Z,149.30
2019-06-11T14:01:11.251Z,165.40
2019-06-11T14:02:11.868Z,154.50
2019-06-11T14:03:13.940Z,166.10
2019-06-11T14:04:10.450Z,182.20
2019-06-11T14:05:10.578Z,206.30
2019-06-11T14:06:09.613Z,157.60
2019-06-11T14:07:09.659Z,166.90
2019-06-11T14:08:10.659Z,139.00
2019-06-11T14:09:15.446Z,137.50
2019-06-11T14:10:11.084Z,140.40
2019-06-11T14:11:11.734Z,146.00
2019-06-11T14:12:10.342Z,102.90
2019-06-11T14:13:10.616Z,95.60
2019-06-11T14:14:25.038Z,109.50
2019-06-11T14:15:13.430Z,115.60
2019-06-11T14:16:10.735Z,98.50
2019-06-11T14:17:11.138Z,121.60
2019-06-11T14:18:10.559Z,208.10
2019-06-11T14:19:10.300Z,107.50
2019-06-11T14:20:11.087Z,78.00
2019-06-11T14:21:12.902Z,120.50
2019-06-11T14:22:10.915Z,140.00
2019-06-11T14:23:10.619Z,130.20
2019-06-11T14:24:12.218Z,84.20
2019-06-11T14:25:10.606Z,81.00
2019-06-11T14:26:10.714Z,95.10
2019-06-11T14:27:10.695Z,77.80
2019-06-11T14:28:10.766Z,45.40
2019-06-11T14:29:20.314Z,79.80
2019-06-11T14:30:18.310Z,97.80
2019-06-11T14:31:29.994Z,90.20
2019-06-11T14:32:11.040Z,97.00
2019-06-11T14:33:12.077Z,85.90
2019-06-11T14:34:11.647Z,109.40
2019-06-11T14:35:11.743Z,94.70
2019-06-11T14:36:13.960Z,111.40
2019-06-11T14:37:11.248Z,103.20
2019-06-11T14:38:12.005Z,82.80
2019-06-11T14:39:11.533Z,140.90
2019-06-11T14:40:12.028Z,104.90
2019-06-11T14:41:12.104Z,118.80
2019-06-11T14:42:11.558Z,86.10
2019-06-11T14:43:12.400Z,71.40
2019-06-11T14:44:21.925Z,62.30
2019-06-11T14:45:11.747Z,91.10
2019-06-11T14:46:11.769Z,104.60
2019-06-11T14:47:12.951Z,82.30
2019-06-11T14:48:11.876Z,110.70
2019-06-11T14:49:12.307Z,68.70
2019-06-11T14:50:16.721Z,68.10
2019-06-11T14:51:12.509Z,107.50
2019-06-11T14:52:12.104Z,76.10
2019-06-11T14:53:12.168Z,126.10
2019-06-11T14:54:16.705Z,127.10
2019-06-11T14:55:16.071Z,119.40
2019-06-11T14:56:14.036Z,115.90
2019-06-11T14:57:13.878Z,170.90
2019-06-11T14:58:12.417Z,188.30
2019-06-11T14:59:12.820Z,126.50
2019-06-11T15:00:12.590Z,125.20
2019-06-11T15:01:13.580Z,255.60
2019-06-11T15:02:12.643Z,190.10
2019-06-11T15:03:13.910Z,130.00
2019-06-11T15:04:13.833Z,166.60
2019-06-11T15:05:13.100Z,121.70
2019-06-11T15:06:12.866Z,144.60
2019-06-11T15:07:14.923Z,153.30
2019-06-11T15:08:14.498Z,143.50
2019-06-11T15:09:14.140Z,110.10
2019-06-11T15:10:13.149Z,159.80
2019-06-11T15:11:14.396Z,155.50
2019-06-11T15:12:16.827Z,133.50
2019-06-11T15:13:13.256Z,155.50
2019-06-11T15:14:14.072Z,207.50
2019-06-11T15:15:19.330Z,169.30
2019-06-11T15:16:13.421Z,156.10
2019-06-11T15:17:13.464Z,161.90
2019-06-11T15:18:16.138Z,171.00
2019-06-11T15:19:14.616Z,136.00
2019-06-11T15:20:21.477Z,239.10
2019-06-11T15:21:13.915Z,164.20
2019-06-11T15:22:13.732Z,128.80
2019-06-11T15:23:13.826Z,129.60
2019-06-11T15:24:15.838Z,122.30
2019-06-11T15:25:13.922Z,161.40
2019-06-11T15:26:14.625Z,179.10
2019-06-11T15:27:14.028Z,204.90
2019-06-11T15:28:14.937Z,190.40
2019-06-11T15:29:14.431Z,178.20
2019-06-11T15:30:23.119Z,196.00
2019-06-11T15:31:14.551Z,219.60
2019-06-11T15:32:14.843Z,155.30
2019-06-11T15:33:15.904Z,186.50
2019-06-11T15:34:15.771Z,160.50
2019-06-11T15:35:16.250Z,174.00
2019-06-11T15:36:16.248Z,172.60
2019-06-11T15:37:14.574Z,168.70
2019-06-11T15:38:17.892Z,171.60
2019-06-11T15:39:15.084Z,203.10
2019-06-11T15:40:16.114Z,298.50
2019-06-11T15:41:15.613Z,228.20
2019-06-11T15:42:14.859Z,227.30
2019-06-11T15:43:17.704Z,234.00
2019-06-11T15:44:16.939Z,149.00
2019-06-11T15:45:34.204Z,308.00
2019-06-11T15:46:16.754Z,263.10
2019-06-11T15:47:15.748Z,345.40
2019-06-11T15:48:15.651Z,495.80
2019-06-11T15:49:19.967Z,573.50
2019-06-11T15:50:15.331Z,572.60
2019-06-11T15:51:15.333Z,617.80
2019-06-11T15:52:15.410Z,596.70
2019-06-11T15:53:15.428Z,791.20
2019-06-11T15:54:17.568Z,655.40
2019-06-11T15:55:15.543Z,673.70
2019-06-11T15:56:32.796Z,746.40
2019-06-11T15:57:15.638Z,676.40
2019-06-11T15:58:15.695Z,655.70
2019-06-11T15:59:16.117Z,585.50
2019-06-11T16:00:15.813Z,477.80
2019-06-11T16:01:15.868Z,526.40
2019-06-11T16:02:18.446Z,575.00
2019-06-11T16:03:15.957Z,515.20
2019-06-11T16:04:17.935Z,488.00
2019-06-11T16:05:16.096Z,454.00
2019-06-11T16:06:25.814Z,505.70
2019-06-11T16:07:16.143Z,441.20
2019-06-11T16:08:16.201Z,492.00
2019-06-11T16:09:27.243Z,514.80
2019-06-11T16:10:16.500Z,480.90
2019-06-11T16:11:16.357Z,421.90
2019-06-11T16:12:17.136Z,485.50
2019-06-11T16:13:17.231Z,585.80
2019-06-11T16:14:16.501Z,539.50
2019-06-11T16:15:35.635Z,482.50
2019-06-11T16:16:21.814Z,565.20
2019-06-11T16:17:16.689Z,446.30
2019-06-11T16:18:18.026Z,496.30
2019-06-11T16:19:16.763Z,503.40
2019-06-11T16:20:18.853Z,587.20
2019-06-11T16:21:17.090Z,398.80
2019-06-11T16:22:17.439Z,496.10
2019-06-11T16:23:17.070Z,764.70
2019-06-11T16:24:17.040Z,751.40
2019-06-11T16:25:17.835Z,479.20
2019-06-11T16:26:17.314Z,449.10
2019-06-11T16:27:17.167Z,386.70
2019-06-11T16:28:18.152Z,472.50
2019-06-11T16:29:17.904Z,655.80
2019-06-11T16:30:18.653Z,470.60
2019-06-11T16:31:17.929Z,529.00
2019-06-11T16:32:20.683Z,522.60
2019-06-11T16:33:18.176Z,471.20
2019-06-11T16:34:20.707Z,654.30
2019-06-11T16:35:18.982Z,533.00
2019-06-11T16:36:22.675Z,603.20
2019-06-11T16:37:18.022Z,505.60
2019-06-11T16:38:20.158Z,525.30
2019-06-11T16:39:17.779Z,633.00
2019-06-11T16:40:19.107Z,625.40
2019-06-11T16:41:19.394Z,748.30
2019-06-11T16:42:18.948Z,710.50
2019-06-11T16:43:19.449Z,616.70
2019-06-11T16:44:22.726Z,608.20
2019-06-11T16:45:18.031Z,584.60
2019-06-11T16:46:25.302Z,638.80
2019-06-11T16:47:23.222Z,669.50
2019-06-11T16:48:18.324Z,567.50
2019-06-11T16:49:19.917Z,550.20
2019-06-11T16:50:22.288Z,578.90
2019-06-11T16:51:19.015Z,611.60
2019-06-11T16:52:19.162Z,696.50
2019-06-11T16:53:21.070Z,595.60
2019-06-11T16:54:20.325Z,658.00
2019-06-11T16:55:21.018Z,662.00
2019-06-11T16:56:21.503Z,598.70
2019-06-11T16:57:20.850Z,653.80
2019-06-11T16:58:21.664Z,834.20
2019-06-11T16:59:20.502Z,707.20
2019-06-11T17:00:28.139Z,761.60
2019-06-11T17:01:20.340Z,680.90
2019-06-11T17:02:19.751Z,770.30
2019-06-11T17:03:24.198Z,716.10
2019-06-11T17:04:21.131Z,719.40
2019-06-11T17:05:25.263Z,732.60
2019-06-11T17:06:21.567Z,830.70
2019-06-11T17:07:19.111Z,675.30
2019-06-11T17:08:25.407Z,772.40
2019-06-11T17:09:19.221Z,699.40
2019-06-11T17:10:22.774Z,714.30
2019-06-11T17:11:23.378Z,738.00
2019-06-11T17:12:24.772Z,690.30
2019-06-11T17:13:20.624Z,681.30